24h
KLIENDITUGI:
Saartelennuliinid: +372 58856336 (24/7)
Estairi piletikassa lennujaamas:
+372 6058887; +372 55603687

05.09.2018 hommikune Transaviabaltika lend KTB670 Tallinn - Kärdla ja KTB671 Kärdla – Tallinn väljalend jääb ära. Lennu ära jäämise põhjustab ilmastikuolu Tallinna ja Kärdla lennuväljal. Reisijatele võimaldatakse tasuta lennupileti ümberbroneerimine reisija soovi kohasele mõnele teisele Tallinn-Kärdla või Kärdla-Tallinn lennule. Reisijatele kes ei soovi lennupileti ümberbroneerimist teisele lennule tagastatakse piletiraha. Oma soovist tuleb teada anda e-mailile [email protected] Lisainformatsioon telefonil 58856336.

EETN Tallinna lennuväli FTEO31 EETN 042300 TAF EETN 042315Z 0500/0524 03005KT 4000 BR SCT003 BKN020 TEMPO 0500/0506 0300 FG VV001 BECMG 0506/0508 9999 SCT013CB BKN030 PROB40 TEMPO 0508/0517 4000 TSRA TEMPO 0520/0524 0600 BCFG SCT003=
METAR EETN 050350Z 00000KT 0100 R08/0275N FG VV001 13/13 Q1018 TEMPO 0300=

EEKA Kärdla lennuväli FCEO32 EETN 050300 TAF EEKA 050300Z 0504/0510 03007KT 9999 SCT007 SCT020CB TEMPO 0504/0506 0500 BCFG BKN003= 
SPECI EEKA 050410Z 02008KT 9999 FEW004 BKN008 17/15 Q1019=
Kuupäev: 
05/09/2018